COYOTE (LAKE MENDOCINO) (COY)

Elevation: 720' · RUSSIAN R basin · Operator: US Army Corps of Engineers

Provisional data, subject to change.
Query executed Wednesday at 18:05:24   clock

Select a sensor type for a plot of data.
Note: Reservoir Flows are daily averages.

Earlier

Date RES ELE    STORAGE    RES CHG    TOC STO    ABV TOC    OUTFLOW    INFLOW    PPT INC    TEMP MN    TEMP MX    EVP PAN   
 FEET   AF   AF   AF   AF   CFS   CFS   INCHES   DEG F   DEG F   INCHES  
07/25/2016 743.58 78710 -258 86370 -7660 218 107 0.00 14 40 0.33
07/26/2016 743.40 78401 -309 86370 -7969 220 83 0.00 16 41 0.34
07/27/2016 743.21 78075 -326 86370 -8295 222 76 0.00 15 41 0.33
07/28/2016 743.02 77749 -326 86370 -8621 224 78 0.00 14 42 0.33
07/29/2016 742.82 77406 -343 86370 -8964 226 72 0.00 16 42 0.34
07/30/2016 742.61 77047 -359 86370 -9323 226 64 0.00 15 40 0.34
07/31/2016 742.40 76687 -360 86370 -9683 226 64 0.00 12 35 0.32
08/01/2016 742.19 76328 -359 86370 -10042 234 71 0.00 12 35 0.31
08/02/2016 741.98 75970 -- 86370 -- 237 76 0.00 12 37 0.32
08/03/2016 741.78 75629 -341 86370 -10741 236 83 0.00 12 38 0.32
08/04/2016 741.58 75288 -341 86370 -11082 230 76 0.00 11 33 0.30
08/05/2016 741.37 74930 -358 86370 -11440 228 62 0.00 11 32 0.26
08/06/2016 741.14 74539 -391 86370 -11831 226 46 0.00 11 32 0.29
08/07/2016 740.95 74216 -323 86370 -12154 224 78 0.00 10 33 0.29
08/08/2016 740.75 73876 -340 86370 -12494 222 67 0.00 12 31 0.28
08/09/2016 740.55 73537 -339 86370 -12833 215 61 0.01 11 34 0.28
08/10/2016 740.36 73214 -323 86370 -13156 214 69 0.00 13 35 0.29
08/11/2016 740.14 72842 -372 86370 -13528 214 44 0.01 13 36 0.29
08/12/2016 739.96 72537 -305 86370 -13833 214 78 0.00 13 37 0.29
08/13/2016 739.76 72199 -338 86370 -14171 216 63 0.00 14 39 0.31
08/14/2016 739.55 71844 -355 86370 -14526 230 69 0.00 12 38 0.30
08/15/2016 739.34 71490 -354 86370 -14880 233 72 0.00 12 37 0.30
08/16/2016 739.12 71120 -370 86370 -15250 237 68 0.00 13 39 0.30
08/17/2016 738.91 70767 -353 86370 -15603 237 77 0.00 14 40 0.31
08/18/2016 738.69 70397 -370 86370 -15973 237 68 0.00 14 37 0.29
08/19/2016 738.48 70045 -352 86370 -16325 240 78 0.00 16 37 0.28
08/20/2016 738.24 69643 -402 86370 -16727 241 55 0.00 14 37 0.28
08/21/2016 738.02 69279 -- 86370 -17091 240 71 0.00 14 34 0.26
08/22/2016 737.80 68908 -371 86370 -17462 232 61 0.00 13 36 0.27
08/23/2016 737.59 68558 -350 86370 -17812 260 100 0.00 12 35 0.28
08/24/2016 -- -- -- -- -- -- -- -- -- -- --

Later | Latest

Warning! This data is preliminary and subject to revision.

Show COY Map | Plot COY Data | 1 Month COY Data | Real-Time COY Data | COY Info